createdAt,value
2018-05-11T00:00:49.110Z,20.95
2018-05-11T00:01:48.956Z,20.93
2018-05-11T00:02:49.155Z,20.94
2018-05-11T00:03:49.017Z,20.93
2018-05-11T00:04:49.099Z,20.94
2018-05-11T00:05:48.983Z,20.95
2018-05-11T00:06:48.932Z,20.94
2018-05-11T00:07:49.051Z,20.95
2018-05-11T00:08:49.014Z,20.93
2018-05-11T00:09:49.196Z,20.93
2018-05-11T00:10:49.139Z,20.93
2018-05-11T00:11:49.490Z,20.95
2018-05-11T00:12:49.011Z,20.94
2018-05-11T00:13:48.926Z,20.92
2018-05-11T00:14:49.166Z,20.96
2018-05-11T00:15:49.098Z,20.94
2018-05-11T00:16:49.125Z,20.94
2018-05-11T00:17:49.099Z,20.95
2018-05-11T00:18:49.013Z,20.94
2018-05-11T00:19:48.960Z,20.93
2018-05-11T00:20:48.934Z,20.94
2018-05-11T00:21:49.090Z,20.93
2018-05-11T00:22:48.995Z,20.91
2018-05-11T00:23:48.943Z,20.94
2018-05-11T00:24:49.179Z,20.93
2018-05-11T00:25:49.103Z,20.9
2018-05-11T00:26:49.033Z,20.95
2018-05-11T00:27:48.970Z,20.92
2018-05-11T00:28:49.032Z,20.91
2018-05-11T00:29:49.084Z,20.94
2018-05-11T00:30:49.037Z,20.93
2018-05-11T00:31:49.230Z,20.92
2018-05-11T00:32:48.987Z,20.95
2018-05-11T00:33:49.039Z,20.92
2018-05-11T00:34:48.968Z,20.9
2018-05-11T00:35:49.135Z,20.92
2018-05-11T00:36:49.082Z,20.91
2018-05-11T00:37:49.099Z,20.9
2018-05-11T00:38:49.229Z,20.93
2018-05-11T00:39:48.993Z,20.9
2018-05-11T00:40:49.149Z,20.89
2018-05-11T00:41:49.010Z,20.93
2018-05-11T00:42:49.084Z,20.92
2018-05-11T00:43:49.013Z,20.91
2018-05-11T00:44:49.126Z,20.95
2018-05-11T00:45:49.098Z,20.91
2018-05-11T00:46:49.156Z,20.9
2018-05-11T00:47:49.261Z,20.93
2018-05-11T00:48:49.013Z,20.92
2018-05-11T00:49:49.138Z,20.91
2018-05-11T00:50:48.982Z,20.92
2018-05-11T00:51:49.001Z,20.89
2018-05-11T00:52:48.991Z,20.89
2018-05-11T00:53:49.235Z,20.92
2018-05-11T00:54:49.073Z,20.9
2018-05-11T00:55:49.072Z,20.89
2018-05-11T00:56:49.105Z,20.9
2018-05-11T00:57:49.177Z,20.9
2018-05-11T00:58:49.213Z,20.89
2018-05-11T00:59:49.291Z,20.93
2018-05-11T01:00:49.081Z,20.91
2018-05-11T01:01:49.341Z,20.89
2018-05-11T01:02:49.030Z,20.91
2018-05-11T01:03:49.325Z,20.89
2018-05-11T01:04:49.063Z,20.89
2018-05-11T01:05:48.957Z,20.9
2018-05-11T01:06:49.139Z,20.89
2018-05-11T01:07:49.237Z,20.89
2018-05-11T01:08:49.154Z,20.92
2018-05-11T01:09:48.989Z,20.89
2018-05-11T01:10:49.028Z,20.89
2018-05-11T01:11:48.944Z,20.91
2018-05-11T01:12:49.150Z,20.89
2018-05-11T01:13:48.748Z,20.89
2018-05-11T01:14:49.121Z,20.9
2018-05-11T01:15:48.990Z,20.89
2018-05-11T01:16:49.305Z,20.88
2018-05-11T01:17:49.159Z,20.89
2018-05-11T01:18:49.154Z,20.89
2018-05-11T01:19:49.191Z,20.89
2018-05-11T01:20:49.186Z,20.89
2018-05-11T01:21:49.057Z,20.87
2018-05-11T01:22:49.182Z,20.87
2018-05-11T01:23:48.943Z,20.87
2018-05-11T01:24:49.006Z,20.87
2018-05-11T01:25:48.979Z,20.86
2018-05-11T01:26:49.127Z,20.89
2018-05-11T01:27:49.071Z,20.88
2018-05-11T01:28:49.219Z,20.86
2018-05-11T01:29:49.083Z,20.89
2018-05-11T01:30:48.934Z,20.88
2018-05-11T01:31:49.108Z,20.86
2018-05-11T01:32:48.981Z,20.89
2018-05-11T01:33:49.160Z,20.87
2018-05-11T01:34:48.959Z,20.86
2018-05-11T01:35:49.168Z,20.89
2018-05-11T01:36:49.109Z,20.86
2018-05-11T01:37:48.923Z,20.86
2018-05-11T01:38:49.093Z,20.89
2018-05-11T01:39:49.399Z,20.87
2018-05-11T01:40:49.122Z,20.84
2018-05-11T01:41:49.111Z,20.89
2018-05-11T01:42:48.968Z,20.88
2018-05-11T01:43:49.080Z,20.87
2018-05-11T01:44:49.044Z,20.88
2018-05-11T01:45:49.120Z,20.86
2018-05-11T01:46:49.019Z,20.85
2018-05-11T01:47:49.041Z,20.88
2018-05-11T01:48:49.608Z,20.86
2018-05-11T01:49:49.162Z,20.84
2018-05-11T01:50:48.953Z,20.87
2018-05-11T01:51:48.896Z,20.85
2018-05-11T01:52:49.278Z,20.85
2018-05-11T01:53:49.032Z,20.86
2018-05-11T01:54:49.059Z,20.85
2018-05-11T01:55:48.982Z,20.84
2018-05-11T01:56:48.971Z,20.88
2018-05-11T01:57:49.166Z,20.86
2018-05-11T01:58:48.903Z,20.84
2018-05-11T01:59:48.981Z,20.85
2018-05-11T02:00:48.966Z,20.85
2018-05-11T02:01:49.258Z,20.83
2018-05-11T02:02:48.940Z,20.83
2018-05-11T02:03:48.986Z,20.83
2018-05-11T02:04:49.230Z,20.83
2018-05-11T02:05:49.497Z,20.85
2018-05-11T02:06:49.158Z,20.83
2018-05-11T02:07:49.137Z,20.83
2018-05-11T02:08:49.014Z,20.85
2018-05-11T02:09:49.300Z,20.85
2018-05-11T02:10:49.043Z,20.84
2018-05-11T02:11:49.072Z,20.87
2018-05-11T02:12:48.931Z,20.83
2018-05-11T02:13:49.163Z,20.82
2018-05-11T02:14:49.025Z,20.83
2018-05-11T02:15:49.416Z,20.82
2018-05-11T02:16:49.204Z,20.83
2018-05-11T02:17:48.930Z,20.84
2018-05-11T02:18:48.933Z,20.84
2018-05-11T02:19:48.949Z,20.84
2018-05-11T02:20:49.216Z,20.85
2018-05-11T02:21:49.054Z,20.83
2018-05-11T02:22:49.219Z,20.83
2018-05-11T02:23:48.950Z,20.87
2018-05-11T02:24:48.981Z,20.84
2018-05-11T02:25:49.915Z,20.83
2018-05-11T02:26:48.991Z,20.84
2018-05-11T02:27:49.118Z,20.83
2018-05-11T02:28:49.036Z,20.83
2018-05-11T02:29:49.111Z,20.84
2018-05-11T02:30:49.054Z,20.83
2018-05-11T02:31:49.194Z,20.83
2018-05-11T02:32:49.161Z,20.83
2018-05-11T02:33:48.970Z,20.82
2018-05-11T02:34:49.148Z,20.81
2018-05-11T02:35:49.034Z,20.83
2018-05-11T02:36:49.058Z,20.82
2018-05-11T02:37:49.067Z,20.81
2018-05-11T02:38:49.164Z,20.84
2018-05-11T02:39:49.153Z,20.83
2018-05-11T02:40:48.904Z,20.81
2018-05-11T02:41:49.062Z,20.84
2018-05-11T02:42:49.096Z,20.82
2018-05-11T02:43:49.023Z,20.82
2018-05-11T02:44:49.017Z,20.84
2018-05-11T02:45:49.074Z,20.82
2018-05-11T02:46:49.038Z,20.81
2018-05-11T02:47:48.935Z,20.83
2018-05-11T02:48:48.996Z,20.82
2018-05-11T02:49:48.977Z,20.81
2018-05-11T02:50:49.020Z,20.84
2018-05-11T02:51:49.138Z,20.82
2018-05-11T02:52:49.528Z,20.81
2018-05-11T02:53:49.111Z,20.83
2018-05-11T02:54:49.073Z,20.82
2018-05-11T02:55:49.049Z,20.8
2018-05-11T02:56:49.077Z,20.82
2018-05-11T02:57:49.121Z,20.81
2018-05-11T02:58:49.069Z,20.8
2018-05-11T02:59:48.984Z,20.82
2018-05-11T03:00:48.947Z,20.8
2018-05-11T03:02:20.441Z,20.8
2018-05-11T03:02:49.160Z,20.81
2018-05-11T03:03:48.980Z,20.8
2018-05-11T03:04:49.148Z,20.79
2018-05-11T03:05:48.957Z,20.83
2018-05-11T03:06:49.083Z,20.81
2018-05-11T03:07:49.140Z,20.79
2018-05-11T03:08:49.061Z,20.83
2018-05-11T03:09:48.929Z,20.8
2018-05-11T03:10:49.067Z,20.79
2018-05-11T03:11:49.048Z,20.79
2018-05-11T03:12:49.021Z,20.79
2018-05-11T03:13:49.020Z,20.78
2018-05-11T03:14:49.101Z,20.81
2018-05-11T03:15:48.858Z,20.79
2018-05-11T03:16:49.100Z,20.78
2018-05-11T03:17:49.044Z,20.81
2018-05-11T03:18:49.526Z,20.79
2018-05-11T03:19:49.101Z,20.78
2018-05-11T03:20:49.224Z,20.81
2018-05-11T03:21:49.063Z,20.78
2018-05-11T03:22:49.023Z,20.78
2018-05-11T03:23:49.105Z,20.8
2018-05-11T03:24:49.089Z,20.78
2018-05-11T03:25:48.884Z,20.79
2018-05-11T03:26:48.972Z,20.81
2018-05-11T03:27:49.510Z,20.79
2018-05-11T03:28:49.008Z,20.77
2018-05-11T03:29:49.064Z,20.79
2018-05-11T03:30:48.961Z,20.78
2018-05-11T03:31:49.230Z,20.77
2018-05-11T03:32:49.046Z,20.8
2018-05-11T03:33:48.914Z,20.77
2018-05-11T03:34:48.978Z,20.77
2018-05-11T03:35:49.063Z,20.81
2018-05-11T03:36:49.122Z,20.78
2018-05-11T03:37:49.355Z,20.76
2018-05-11T03:38:48.981Z,20.78
2018-05-11T03:39:48.996Z,20.77
2018-05-11T03:40:49.093Z,20.75
2018-05-11T03:41:49.039Z,20.78
2018-05-11T03:42:49.248Z,20.76
2018-05-11T03:43:49.167Z,20.76
2018-05-11T03:44:49.003Z,20.77
2018-05-11T03:45:49.119Z,20.76
2018-05-11T03:46:48.855Z,20.77
2018-05-11T03:47:49.035Z,20.79
2018-05-11T03:48:49.147Z,20.76
2018-05-11T03:49:48.973Z,20.75
2018-05-11T03:50:48.885Z,20.77
2018-05-11T03:51:49.003Z,20.77
2018-05-11T03:52:48.907Z,20.75
2018-05-11T03:53:48.892Z,20.77
2018-05-11T03:54:48.994Z,20.75
2018-05-11T03:55:48.999Z,20.77
2018-05-11T03:56:49.003Z,20.77
2018-05-11T03:57:49.391Z,20.77
2018-05-11T03:58:49.041Z,20.75
2018-05-11T03:59:49.268Z,20.77
2018-05-11T04:00:48.866Z,20.77
2018-05-11T04:01:49.061Z,20.76
2018-05-11T04:02:48.890Z,20.77
2018-05-11T04:03:48.878Z,20.77
2018-05-11T04:04:49.040Z,20.75
2018-05-11T04:05:48.978Z,20.79
2018-05-11T04:06:49.104Z,20.77
2018-05-11T04:07:48.848Z,20.75
2018-05-11T04:08:48.906Z,20.78
2018-05-11T04:09:48.992Z,20.76
2018-05-11T04:10:49.152Z,20.75
2018-05-11T04:11:49.098Z,20.78
2018-05-11T04:12:49.170Z,20.75
2018-05-11T04:13:49.233Z,20.75
2018-05-11T04:14:48.908Z,20.77
2018-05-11T04:15:48.932Z,20.76
2018-05-11T04:16:49.130Z,20.75
2018-05-11T04:17:48.991Z,20.77
2018-05-11T04:18:49.096Z,20.76
2018-05-11T04:19:49.025Z,20.75
2018-05-11T04:20:49.408Z,20.77
2018-05-11T04:21:48.984Z,20.75
2018-05-11T04:22:48.996Z,20.75
2018-05-11T04:23:48.884Z,20.77
2018-05-11T04:24:48.954Z,20.74
2018-05-11T04:25:49.267Z,20.74
2018-05-11T04:26:48.974Z,20.77
2018-05-11T04:27:49.069Z,20.75
2018-05-11T04:28:48.928Z,20.73
2018-05-11T04:29:48.851Z,20.76
2018-05-11T04:30:49.095Z,20.75
2018-05-11T04:31:49.021Z,20.75
2018-05-11T04:32:48.851Z,20.76
2018-05-11T04:33:49.057Z,20.73
2018-05-11T04:34:49.185Z,20.72
2018-05-11T04:35:48.868Z,20.73
2018-05-11T04:36:49.083Z,20.73
2018-05-11T04:37:48.920Z,20.73
2018-05-11T04:38:49.214Z,20.76
2018-05-11T04:39:48.912Z,20.74
2018-05-11T04:40:49.035Z,20.71
2018-05-11T04:41:48.980Z,20.77
2018-05-11T04:42:48.889Z,20.74
2018-05-11T04:43:49.072Z,20.73
2018-05-11T04:44:49.090Z,20.75
2018-05-11T04:45:48.909Z,20.73
2018-05-11T04:46:49.079Z,20.72
2018-05-11T04:47:49.030Z,20.75
2018-05-11T04:48:48.940Z,20.72
2018-05-11T04:49:48.919Z,20.71
2018-05-11T04:50:49.090Z,20.76
2018-05-11T04:51:48.960Z,20.71
2018-05-11T04:52:49.055Z,20.71
2018-05-11T04:53:49.179Z,20.77
2018-05-11T04:54:49.065Z,20.73
2018-05-11T04:55:49.141Z,20.72
2018-05-11T04:56:48.898Z,20.76
2018-05-11T04:57:49.012Z,20.73
2018-05-11T04:58:49.027Z,20.71
2018-05-11T04:59:49.124Z,20.75
2018-05-11T05:00:48.939Z,20.71
2018-05-11T05:01:48.950Z,20.71
2018-05-11T05:02:48.960Z,20.76
2018-05-11T05:03:48.925Z,20.71
2018-05-11T05:04:48.948Z,20.72
2018-05-11T05:05:48.853Z,20.77
2018-05-11T05:06:49.142Z,20.72
2018-05-11T05:07:48.940Z,20.73
2018-05-11T05:08:49.024Z,20.76
2018-05-11T05:09:48.998Z,20.73
2018-05-11T05:10:48.934Z,20.73
2018-05-11T05:11:48.980Z,20.75
2018-05-11T05:12:48.823Z,20.72
2018-05-11T05:13:49.016Z,20.72
2018-05-11T05:14:48.967Z,20.76
2018-05-11T05:15:48.897Z,20.74
2018-05-11T05:16:49.051Z,20.73
2018-05-11T05:17:48.916Z,20.74
2018-05-11T05:18:48.975Z,20.72
2018-05-11T05:19:49.146Z,20.72
2018-05-11T05:20:48.967Z,20.75
2018-05-11T05:21:49.112Z,20.73
2018-05-11T05:22:48.940Z,20.72
2018-05-11T05:23:48.996Z,20.74
2018-05-11T05:24:48.881Z,20.71
2018-05-11T05:25:49.354Z,20.71
2018-05-11T05:26:49.303Z,20.75
2018-05-11T05:27:48.982Z,20.74
2018-05-11T05:28:49.113Z,20.73
2018-05-11T05:29:48.940Z,20.74
2018-05-11T05:30:49.054Z,20.72
2018-05-11T05:31:48.884Z,20.71
2018-05-11T05:32:48.905Z,20.75
2018-05-11T05:33:48.975Z,20.73
2018-05-11T05:34:48.950Z,20.71
2018-05-11T05:35:49.030Z,20.76
2018-05-11T05:36:49.080Z,20.73
2018-05-11T05:37:49.031Z,20.71
2018-05-11T05:38:48.926Z,20.75
2018-05-11T05:39:49.011Z,20.72
2018-05-11T05:40:49.040Z,20.71
2018-05-11T05:41:48.943Z,20.75
2018-05-11T05:42:49.134Z,20.71
2018-05-11T05:43:48.955Z,20.71
2018-05-11T05:44:48.944Z,20.75
2018-05-11T05:45:49.431Z,20.71
2018-05-11T05:46:49.082Z,20.7
2018-05-11T05:47:49.085Z,20.73
2018-05-11T05:48:48.962Z,20.71
2018-05-11T05:49:49.103Z,20.71
2018-05-11T05:50:48.973Z,20.75
2018-05-11T05:51:49.003Z,20.73
2018-05-11T05:52:48.892Z,20.71
2018-05-11T05:53:49.082Z,20.71
2018-05-11T05:54:49.057Z,20.72
2018-05-11T05:55:49.071Z,20.71
2018-05-11T05:56:48.955Z,20.75
2018-05-11T05:57:48.956Z,20.72
2018-05-11T05:58:48.838Z,20.7
2018-05-11T05:59:49.119Z,20.75
2018-05-11T06:00:48.846Z,20.72
2018-05-11T06:01:49.005Z,20.71
2018-05-11T06:02:49.155Z,20.73
2018-05-11T06:03:48.991Z,20.72
2018-05-11T06:04:48.915Z,20.71
2018-05-11T06:05:48.972Z,20.73
2018-05-11T06:06:48.846Z,20.71
2018-05-11T06:07:49.001Z,20.72
2018-05-11T06:08:48.948Z,20.74
2018-05-11T06:09:48.924Z,20.72
2018-05-11T06:10:49.752Z,20.71
2018-05-11T06:11:48.973Z,20.73
2018-05-11T06:12:49.002Z,20.72
2018-05-11T06:13:48.820Z,20.72
2018-05-11T06:14:48.926Z,20.75
2018-05-11T06:15:48.912Z,20.71
2018-05-11T06:16:49.112Z,20.71
2018-05-11T06:17:49.032Z,20.75
2018-05-11T06:18:49.134Z,20.72
2018-05-11T06:19:48.985Z,20.72
2018-05-11T06:20:48.931Z,20.75
2018-05-11T06:21:48.981Z,20.72
2018-05-11T06:22:49.360Z,20.72
2018-05-11T06:23:49.055Z,20.75
2018-05-11T06:24:49.644Z,20.73
2018-05-11T06:25:48.948Z,20.73
2018-05-11T06:26:49.310Z,20.75
2018-05-11T06:27:58.922Z,20.72
2018-05-11T06:28:49.027Z,20.71
2018-05-11T06:29:48.920Z,20.75
2018-05-11T06:30:49.106Z,20.72
2018-05-11T06:31:48.930Z,20.71
2018-05-11T06:32:49.110Z,20.76
2018-05-11T06:33:48.988Z,20.72
2018-05-11T06:34:48.987Z,20.72
2018-05-11T06:35:49.519Z,20.73
2018-05-11T06:36:48.891Z,20.71
2018-05-11T06:37:48.863Z,20.7
2018-05-11T06:38:49.028Z,20.74
2018-05-11T06:39:49.094Z,20.72
2018-05-11T06:40:48.869Z,20.72
2018-05-11T06:41:49.033Z,20.75
2018-05-11T06:42:49.099Z,20.72
2018-05-11T06:43:48.882Z,20.72
2018-05-11T06:44:49.002Z,20.75
2018-05-11T06:45:49.037Z,20.72
2018-05-11T06:46:49.203Z,20.7
2018-05-11T06:47:48.937Z,20.75
2018-05-11T06:48:48.977Z,20.7
2018-05-11T06:49:49.061Z,20.7
2018-05-11T06:50:49.112Z,20.74
2018-05-11T06:51:49.067Z,20.72
2018-05-11T06:52:48.857Z,20.71
2018-05-11T06:53:49.034Z,20.75
2018-05-11T06:54:49.022Z,20.72
2018-05-11T06:55:49.500Z,20.71
2018-05-11T06:56:49.530Z,20.75
2018-05-11T06:57:48.875Z,20.71
2018-05-11T06:58:51.506Z,20.71
2018-05-11T06:59:48.952Z,20.73
2018-05-11T07:00:49.202Z,20.72
2018-05-11T07:01:48.935Z,20.71
2018-05-11T07:02:49.154Z,20.74
2018-05-11T07:03:49.033Z,20.71
2018-05-11T07:04:48.956Z,20.71
2018-05-11T07:05:48.825Z,20.74
2018-05-11T07:06:49.002Z,20.71
2018-05-11T07:07:50.019Z,20.71
2018-05-11T07:08:48.927Z,20.76
2018-05-11T07:09:49.064Z,20.73
2018-05-11T07:10:48.988Z,20.71
2018-05-11T07:11:49.069Z,20.73
2018-05-11T07:12:48.831Z,20.71
2018-05-11T07:13:48.886Z,20.71
2018-05-11T07:14:48.850Z,20.74
2018-05-11T07:15:49.701Z,20.71
2018-05-11T07:16:49.121Z,20.7
2018-05-11T07:17:48.913Z,20.73
2018-05-11T07:18:48.888Z,20.71
2018-05-11T07:19:49.097Z,20.71
2018-05-11T07:20:48.958Z,20.72
2018-05-11T07:21:48.912Z,20.71
2018-05-11T07:22:49.392Z,20.7
2018-05-11T07:23:48.961Z,20.73
2018-05-11T07:24:48.964Z,20.71
2018-05-11T07:25:49.652Z,20.7
2018-05-11T07:26:49.027Z,20.76
2018-05-11T07:27:48.973Z,20.71
2018-05-11T07:28:49.217Z,20.71
2018-05-11T07:29:48.868Z,20.71
2018-05-11T07:30:49.151Z,20.7
2018-05-11T07:31:48.908Z,20.69
2018-05-11T07:32:48.965Z,20.74
2018-05-11T07:33:49.057Z,20.71
2018-05-11T07:34:49.279Z,20.69
2018-05-11T07:35:49.117Z,20.72
2018-05-11T07:36:48.959Z,20.71
2018-05-11T07:37:48.976Z,20.69
2018-05-11T07:38:49.004Z,20.73
2018-05-11T07:39:48.974Z,20.71
2018-05-11T07:40:48.962Z,20.7
2018-05-11T07:41:48.912Z,20.7
2018-05-11T07:42:49.033Z,20.68
2018-05-11T07:43:48.971Z,20.65
2018-05-11T07:44:49.191Z,20.73
2018-05-11T07:45:49.046Z,20.75
2018-05-11T07:46:48.944Z,20.75
2018-05-11T07:47:49.055Z,20.82
2018-05-11T07:48:49.091Z,20.8
2018-05-11T07:49:49.217Z,20.76
2018-05-11T07:50:48.832Z,20.8
2018-05-11T07:51:48.855Z,20.79
2018-05-11T07:52:48.922Z,20.77
2018-05-11T07:53:48.830Z,20.82
2018-05-11T07:54:49.030Z,20.79
2018-05-11T07:55:49.000Z,20.77
2018-05-11T07:56:48.853Z,20.79
2018-05-11T07:57:48.956Z,20.77
2018-05-11T07:58:48.845Z,20.77
2018-05-11T07:59:49.047Z,20.8
2018-05-11T08:00:48.820Z,20.77
2018-05-11T08:01:49.188Z,20.77
2018-05-11T08:02:48.862Z,20.82
2018-05-11T08:03:49.288Z,20.79
2018-05-11T08:04:49.006Z,20.77
2018-05-11T08:05:49.047Z,20.79
2018-05-11T08:06:49.100Z,20.77
2018-05-11T08:07:48.818Z,20.77
2018-05-11T08:08:49.001Z,20.8
2018-05-11T08:09:48.944Z,20.78
2018-05-11T08:10:49.061Z,20.76
2018-05-11T08:11:49.015Z,20.78
2018-05-11T08:12:48.819Z,20.77
2018-05-11T08:13:49.023Z,20.77
2018-05-11T08:14:48.823Z,20.82
2018-05-11T08:15:48.852Z,20.79
2018-05-11T08:16:49.079Z,20.77
2018-05-11T08:17:48.936Z,20.79
2018-05-11T08:18:49.562Z,20.8
2018-05-11T08:19:49.010Z,20.78
2018-05-11T08:20:49.234Z,20.79
2018-05-11T08:21:49.415Z,20.79
2018-05-11T08:22:48.807Z,20.78
2018-05-11T08:23:48.855Z,20.78
2018-05-11T08:24:48.925Z,20.78
2018-05-11T08:25:49.032Z,20.78
2018-05-11T08:26:49.812Z,20.83
2018-05-11T08:27:49.011Z,20.81
2018-05-11T08:28:58.939Z,20.79
2018-05-11T08:29:48.881Z,20.81
2018-05-11T08:30:48.926Z,20.77
2018-05-11T08:31:49.032Z,20.77
2018-05-11T08:32:48.846Z,20.79
2018-05-11T08:33:48.933Z,20.77
2018-05-11T08:34:49.044Z,20.77
2018-05-11T08:35:49.823Z,20.8
2018-05-11T08:36:49.074Z,20.77
2018-05-11T08:37:48.932Z,20.75
2018-05-11T08:38:48.904Z,20.78
2018-05-11T08:39:48.895Z,20.76
2018-05-11T08:40:48.832Z,20.76
2018-05-11T08:41:48.875Z,20.77
2018-05-11T08:42:48.871Z,20.75
2018-05-11T08:43:49.098Z,20.75
2018-05-11T08:44:48.953Z,20.77
2018-05-11T08:45:49.030Z,20.76
2018-05-11T08:46:49.016Z,20.77
2018-05-11T08:47:48.924Z,20.76
2018-05-11T08:48:48.850Z,20.65
2018-05-11T08:49:48.984Z,20.72
2018-05-11T08:50:49.011Z,20.63
2018-05-11T08:51:49.287Z,20.64
2018-05-11T08:52:48.876Z,20.65
2018-05-11T08:53:48.951Z,20.72
2018-05-11T08:54:48.851Z,20.7
2018-05-11T08:55:49.434Z,20.68
2018-05-11T08:56:48.845Z,20.72
2018-05-11T08:57:49.135Z,20.71
2018-05-11T08:58:49.046Z,20.71
2018-05-11T08:59:48.982Z,20.72
2018-05-11T09:00:48.929Z,20.73
2018-05-11T09:01:49.064Z,20.72
2018-05-11T09:02:48.880Z,20.73
2018-05-11T09:03:48.927Z,20.74
2018-05-11T09:04:48.880Z,20.73
2018-05-11T09:05:48.822Z,20.74
2018-05-11T09:06:48.953Z,20.72
2018-05-11T09:07:48.927Z,20.72
2018-05-11T09:08:48.954Z,20.74
2018-05-11T09:09:49.145Z,20.75
2018-05-11T09:10:49.020Z,20.73
2018-05-11T09:11:48.916Z,20.77
2018-05-11T09:12:48.914Z,20.75
2018-05-11T09:13:48.929Z,20.75
2018-05-11T09:14:48.942Z,20.77
2018-05-11T09:15:49.036Z,20.76
2018-05-11T09:16:48.888Z,20.74
2018-05-11T09:17:48.847Z,20.76
2018-05-11T09:18:49.071Z,20.76
2018-05-11T09:19:49.080Z,20.76
2018-05-11T09:20:48.852Z,20.79
2018-05-11T09:21:48.889Z,20.77
2018-05-11T09:22:48.899Z,20.77
2018-05-11T09:23:48.898Z,20.79
2018-05-11T09:24:49.001Z,20.78
2018-05-11T09:25:48.826Z,20.78
2018-05-11T09:26:48.874Z,20.8
2018-05-11T09:27:48.885Z,20.78
2018-05-11T09:28:48.912Z,20.77
2018-05-11T09:29:48.959Z,20.81
2018-05-11T09:30:48.979Z,20.78
2018-05-11T09:31:49.280Z,20.76
2018-05-11T09:32:48.866Z,20.81
2018-05-11T09:33:49.060Z,20.77
2018-05-11T09:34:48.833Z,20.76
2018-05-11T09:35:48.877Z,20.8
2018-05-11T09:36:48.997Z,20.77
2018-05-11T09:37:49.003Z,20.77
2018-05-11T09:38:48.964Z,20.79
2018-05-11T09:39:49.825Z,20.77
2018-05-11T09:40:49.017Z,20.77
2018-05-11T09:41:48.977Z,20.8
2018-05-11T09:42:14.204Z,20.88
2018-05-11T09:43:14.383Z,21.09
2018-05-11T09:44:14.512Z,21.18
2018-05-11T09:45:14.393Z,21.15
2018-05-11T09:46:14.276Z,21.09
2018-05-11T09:47:14.284Z,21.21
2018-05-11T09:48:14.267Z,21.32
2018-05-11T09:49:14.412Z,21.3
2018-05-11T09:50:14.391Z,21.33
2018-05-11T09:51:14.286Z,21.39
2018-05-11T09:52:24.285Z,21.36
2018-05-11T09:53:14.425Z,21.39
2018-05-11T09:54:14.277Z,21.48
2018-05-11T09:55:14.412Z,21.47
2018-05-11T09:56:14.430Z,21.44
2018-05-11T09:57:14.216Z,21.46
2018-05-11T09:58:14.288Z,21.48
2018-05-11T09:59:14.231Z,21.51
2018-05-11T10:00:14.435Z,21.52
2018-05-11T10:01:14.252Z,21.52
2018-05-11T10:02:14.261Z,21.59
2018-05-11T10:03:14.350Z,21.58
2018-05-11T10:04:14.240Z,21.56
2018-05-11T10:05:14.277Z,21.59
2018-05-11T10:06:14.324Z,21.57
2018-05-11T10:07:14.384Z,21.48
2018-05-11T10:08:14.505Z,21.6
2018-05-11T10:09:14.457Z,21.46
2018-05-11T10:10:14.413Z,21.59
2018-05-11T10:11:14.277Z,21.57
2018-05-11T10:12:14.412Z,21.54
2018-05-11T10:13:14.309Z,21.54
2018-05-11T10:14:14.274Z,21.56
2018-05-11T10:15:14.506Z,21.55
2018-05-11T10:16:14.305Z,21.54
2018-05-11T10:17:14.376Z,21.5
2018-05-11T10:18:14.454Z,21.57
2018-05-11T10:19:14.375Z,21.57
2018-05-11T10:20:14.395Z,21.57
2018-05-11T10:21:14.286Z,21.56
2018-05-11T10:22:14.462Z,21.58
2018-05-11T10:23:14.205Z,21.58
2018-05-11T10:24:14.308Z,21.61
2018-05-11T10:25:14.242Z,21.61
2018-05-11T10:26:14.349Z,21.6
2018-05-11T10:27:14.480Z,21.6
2018-05-11T10:28:14.540Z,21.63
2018-05-11T10:29:14.379Z,21.63
2018-05-11T10:30:14.364Z,21.62
2018-05-11T10:31:14.320Z,21.68
2018-05-11T10:32:14.217Z,21.65
2018-05-11T10:33:14.784Z,21.71
2018-05-11T10:34:14.435Z,21.73
2018-05-11T10:35:14.255Z,21.71
2018-05-11T10:36:14.235Z,21.7
2018-05-11T10:37:14.317Z,21.74
2018-05-11T10:38:14.326Z,21.73
2018-05-11T10:39:14.373Z,21.74
2018-05-11T10:40:14.402Z,21.75
2018-05-11T10:41:14.317Z,21.76
2018-05-11T10:42:14.343Z,21.75
2018-05-11T10:43:14.283Z,21.77
2018-05-11T10:44:14.385Z,21.77
2018-05-11T10:45:14.396Z,21.75
2018-05-11T10:46:14.177Z,21.79
2018-05-11T10:47:14.226Z,21.76
2018-05-11T10:48:14.280Z,21.77
2018-05-11T10:49:14.274Z,21.83
2018-05-11T10:50:14.314Z,21.83
2018-05-11T10:51:14.296Z,21.9
2018-05-11T10:52:14.355Z,21.88
2018-05-11T10:53:14.367Z,21.9
2018-05-11T10:54:14.757Z,21.95
2018-05-11T10:55:14.366Z,21.96
2018-05-11T10:56:14.324Z,21.99
2018-05-11T10:57:14.336Z,21.99
2018-05-11T10:58:14.498Z,21.97
2018-05-11T10:59:14.318Z,21.97
2018-05-11T11:00:14.258Z,22
2018-05-11T11:01:24.442Z,22.03
2018-05-11T11:02:14.503Z,22.03
2018-05-11T11:03:14.458Z,22.06
2018-05-11T11:04:14.399Z,22.01
2018-05-11T11:05:14.423Z,21.92
2018-05-11T11:05:54.985Z,21.9
2018-05-11T11:06:17.295Z,21.91
2018-05-11T11:07:17.428Z,21.94
2018-05-11T11:08:17.410Z,21.94
2018-05-11T11:09:17.380Z,22.01
2018-05-11T11:10:17.472Z,21.99
2018-05-11T11:11:17.356Z,22
2018-05-11T11:12:17.377Z,22.05
2018-05-11T11:13:00.653Z,22.05
2018-05-11T11:14:00.942Z,22.03
2018-05-11T11:15:01.079Z,22.03
2018-05-11T11:16:00.925Z,22.04
2018-05-11T11:17:00.884Z,22.03
2018-05-11T11:18:01.935Z,22.04
2018-05-11T11:19:01.113Z,22.06
2018-05-11T11:20:01.603Z,22.06
2018-05-11T11:21:01.247Z,22.05
2018-05-11T11:22:00.990Z,22.01
2018-05-11T11:23:00.881Z,22.05
2018-05-11T11:24:00.409Z,22.06
2018-05-11T11:25:00.282Z,22.04
2018-05-11T11:26:00.932Z,21.95
2018-05-11T11:27:00.368Z,21.94
2018-05-11T11:28:00.283Z,22
2018-05-11T11:29:00.398Z,22.06
2018-05-11T11:30:00.439Z,22.05
2018-05-11T11:31:00.359Z,22.05
2018-05-11T11:32:00.373Z,22.05
2018-05-11T11:33:00.474Z,22.08
2018-05-11T11:34:00.463Z,22.14
2018-05-11T11:34:35.125Z,22.13
2018-05-11T11:35:35.109Z,22.13
2018-05-11T11:36:34.925Z,22.12
2018-05-11T11:37:34.892Z,22.1
2018-05-11T11:38:34.934Z,22.1
2018-05-11T11:39:34.737Z,22.09
2018-05-11T11:40:49.307Z,22.08
2018-05-11T11:41:49.938Z,22.05
2018-05-11T11:42:49.322Z,22.08
2018-05-11T11:43:57.078Z,22.09
2018-05-11T11:44:57.166Z,22.07
2018-05-11T11:45:57.122Z,21.95
2018-05-11T11:46:57.229Z,21.86
2018-05-11T11:47:57.024Z,21.87
2018-05-11T11:48:57.071Z,22
2018-05-11T11:49:57.025Z,21.96
2018-05-11T11:50:57.060Z,21.91
2018-05-11T11:51:57.219Z,21.95
2018-05-11T11:52:56.944Z,21.98
2018-05-11T11:53:57.157Z,21.95
2018-05-11T11:54:57.051Z,21.97
2018-05-11T11:55:57.180Z,21.98
2018-05-11T11:56:57.310Z,21.95
2018-05-11T11:57:56.977Z,21.95
2018-05-11T11:58:57.253Z,21.99
2018-05-11T11:59:57.066Z,21.91
2018-05-11T12:00:57.200Z,21.95
2018-05-11T12:01:57.541Z,21.97
2018-05-11T12:02:57.358Z,21.9
2018-05-11T12:03:57.364Z,21.94
2018-05-11T12:04:57.178Z,21.93
2018-05-11T12:05:57.118Z,21.92
2018-05-11T12:06:57.321Z,21.96
2018-05-11T12:07:57.115Z,21.9
2018-05-11T12:08:57.555Z,21.89
2018-05-11T12:09:57.371Z,21.9
2018-05-11T12:10:57.235Z,21.9
2018-05-11T12:11:57.115Z,21.92
2018-05-11T12:12:57.144Z,21.93
2018-05-11T12:13:57.188Z,21.94
2018-05-11T12:14:57.363Z,21.86
2018-05-11T12:15:57.062Z,21.87
2018-05-11T12:16:57.197Z,21.93
2018-05-11T12:17:57.224Z,21.95
2018-05-11T12:18:57.114Z,21.93
2018-05-11T12:19:57.143Z,21.89
2018-05-11T12:20:57.042Z,21.91
2018-05-11T12:21:57.276Z,21.83
2018-05-11T12:22:56.985Z,21.83
2018-05-11T12:23:57.235Z,21.83
2018-05-11T12:24:57.305Z,21.85
2018-05-11T12:25:57.146Z,21.86
2018-05-11T12:26:57.059Z,21.87
2018-05-11T12:27:57.197Z,21.82
2018-05-11T12:28:56.972Z,21.83
2018-05-11T12:29:57.023Z,21.79
2018-05-11T12:30:56.936Z,21.79
2018-05-11T12:31:56.979Z,21.82
2018-05-11T12:32:57.084Z,21.77
2018-05-11T12:33:57.099Z,21.77
2018-05-11T12:34:57.700Z,21.73
2018-05-11T12:35:57.152Z,21.74
2018-05-11T19:00:52.902Z,16.66
2018-05-11T19:01:53.039Z,16.71
2018-05-11T19:03:03.011Z,16.88
2018-05-11T19:03:52.914Z,17.09
2018-05-11T19:04:53.065Z,17.33
2018-05-11T19:05:53.040Z,17.58
2018-05-11T19:06:53.068Z,17.82
2018-05-11T19:07:52.961Z,18.09
2018-05-11T19:08:53.691Z,18.33
2018-05-11T19:09:53.011Z,18.57
2018-05-11T19:10:53.022Z,18.77
2018-05-11T19:11:53.167Z,18.98
2018-05-11T19:12:53.296Z,19.19
2018-05-11T19:13:53.245Z,19.38
2018-05-11T19:14:52.838Z,19.53
2018-05-11T19:15:53.001Z,19.7
2018-05-11T19:16:53.008Z,19.85